sensor_id;sensor_type;location;lat;lon;timestamp;temperature;humidity
40153;DHT22;26371;56.992;23.912;2023-01-09T00:00:13;-2.50;99.90
40153;DHT22;26371;56.992;23.912;2023-01-09T00:02:43;-2.50;99.90
40153;DHT22;26371;56.992;23.912;2023-01-09T00:05:14;-2.50;99.90
40153;DHT22;26371;56.992;23.912;2023-01-09T00:07:43;-2.50;99.90
40153;DHT22;26371;56.992;23.912;2023-01-09T00:10:13;-2.50;99.90
40153;DHT22;26371;56.992;23.912;2023-01-09T00:12:42;-2.60;99.90
40153;DHT22;26371;56.992;23.912;2023-01-09T00:15:11;-2.60;99.90
40153;DHT22;26371;56.992;23.912;2023-01-09T00:17:40;-2.60;99.90
40153;DHT22;26371;56.992;23.912;2023-01-09T00:20:09;-2.50;99.90
40153;DHT22;26371;56.992;23.912;2023-01-09T00:22:38;-2.50;99.90
40153;DHT22;26371;56.992;23.912;2023-01-09T00:25:07;-2.50;99.90
40153;DHT22;26371;56.992;23.912;2023-01-09T00:27:37;-2.50;99.90
40153;DHT22;26371;56.992;23.912;2023-01-09T00:30:09;-2.50;99.90
40153;DHT22;26371;56.992;23.912;2023-01-09T00:32:39;-2.40;99.90
40153;DHT22;26371;56.992;23.912;2023-01-09T00:35:10;-2.40;99.90
40153;DHT22;26371;56.992;23.912;2023-01-09T00:37:42;-2.40;99.90
40153;DHT22;26371;56.992;23.912;2023-01-09T00:40:13;-2.40;99.90
40153;DHT22;26371;56.992;23.912;2023-01-09T00:42:45;-2.40;99.90
40153;DHT22;26371;56.992;23.912;2023-01-09T00:45:17;-2.40;99.90
40153;DHT22;26371;56.992;23.912;2023-01-09T00:47:50;-2.50;99.90
40153;DHT22;26371;56.992;23.912;2023-01-09T00:50:21;-2.40;99.90
40153;DHT22;26371;56.992;23.912;2023-01-09T00:52:53;-2.40;99.90
40153;DHT22;26371;56.992;23.912;2023-01-09T00:55:23;-2.50;99.90
40153;DHT22;26371;56.992;23.912;2023-01-09T00:57:54;-2.50;99.90
40153;DHT22;26371;56.992;23.912;2023-01-09T01:00:23;-2.40;99.90
40153;DHT22;26371;56.992;23.912;2023-01-09T01:02:52;-2.40;99.90
40153;DHT22;26371;56.992;23.912;2023-01-09T01:05:21;-2.50;99.90
40153;DHT22;26371;56.992;23.912;2023-01-09T01:08:10;-2.40;99.90
40153;DHT22;26371;56.992;23.912;2023-01-09T01:10:39;-2.40;99.90
40153;DHT22;26371;56.992;23.912;2023-01-09T01:13:09;-2.50;99.90
40153;DHT22;26371;56.992;23.912;2023-01-09T01:15:39;-2.40;99.90
40153;DHT22;26371;56.992;23.912;2023-01-09T01:18:08;-2.40;99.90
40153;DHT22;26371;56.992;23.912;2023-01-09T01:20:39;-2.40;99.90
40153;DHT22;26371;56.992;23.912;2023-01-09T01:23:07;-2.40;99.90
40153;DHT22;26371;56.992;23.912;2023-01-09T01:25:37;-2.40;99.90
40153;DHT22;26371;56.992;23.912;2023-01-09T01:28:06;-2.40;99.90
40153;DHT22;26371;56.992;23.912;2023-01-09T01:30:38;-2.40;99.90
40153;DHT22;26371;56.992;23.912;2023-01-09T01:33:08;-2.40;99.90
40153;DHT22;26371;56.992;23.912;2023-01-09T01:35:37;-2.30;99.90
40153;DHT22;26371;56.992;23.912;2023-01-09T01:38:06;-2.30;99.90
40153;DHT22;26371;56.992;23.912;2023-01-09T01:40:34;-2.30;99.90
40153;DHT22;26371;56.992;23.912;2023-01-09T01:43:04;-2.30;99.90
40153;DHT22;26371;56.992;23.912;2023-01-09T01:45:32;-2.30;99.90
40153;DHT22;26371;56.992;23.912;2023-01-09T01:48:06;-2.30;99.90
40153;DHT22;26371;56.992;23.912;2023-01-09T01:50:39;-2.30;99.90
40153;DHT22;26371;56.992;23.912;2023-01-09T01:53:12;-2.30;99.90
40153;DHT22;26371;56.992;23.912;2023-01-09T01:55:44;-2.30;99.90
40153;DHT22;26371;56.992;23.912;2023-01-09T01:58:14;-2.30;99.90
40153;DHT22;26371;56.992;23.912;2023-01-09T02:00:45;-2.30;99.90
40153;DHT22;26371;56.992;23.912;2023-01-09T02:03:18;-2.30;99.90
40153;DHT22;26371;56.992;23.912;2023-01-09T02:05:49;-2.30;99.90
40153;DHT22;26371;56.992;23.912;2023-01-09T02:08:17;-2.30;99.90
40153;DHT22;26371;56.992;23.912;2023-01-09T02:10:46;-2.30;99.90
40153;DHT22;26371;56.992;23.912;2023-01-09T02:13:17;-2.30;99.90
40153;DHT22;26371;56.992;23.912;2023-01-09T02:15:59;-2.30;99.90
40153;DHT22;26371;56.992;23.912;2023-01-09T02:18:46;-2.30;99.90
40153;DHT22;26371;56.992;23.912;2023-01-09T02:21:36;-2.30;99.90
40153;DHT22;26371;56.992;23.912;2023-01-09T02:24:41;-2.30;99.90
40153;DHT22;26371;56.992;23.912;2023-01-09T02:27:51;-2.30;99.90
40153;DHT22;26371;56.992;23.912;2023-01-09T02:30:38;-2.30;99.90
40153;DHT22;26371;56.992;23.912;2023-01-09T02:33:19;-2.30;99.90
40153;DHT22;26371;56.992;23.912;2023-01-09T02:36:02;-2.30;99.90
40153;DHT22;26371;56.992;23.912;2023-01-09T02:38:41;-2.30;99.90
40153;DHT22;26371;56.992;23.912;2023-01-09T02:41:16;-2.30;99.90
40153;DHT22;26371;56.992;23.912;2023-01-09T02:43:47;-2.20;99.90
40153;DHT22;26371;56.992;23.912;2023-01-09T02:46:29;-2.20;99.90
40153;DHT22;26371;56.992;23.912;2023-01-09T02:48:57;-2.10;99.90
40153;DHT22;26371;56.992;23.912;2023-01-09T02:51:31;-2.20;99.90
40153;DHT22;26371;56.992;23.912;2023-01-09T02:54:13;-2.20;99.90
40153;DHT22;26371;56.992;23.912;2023-01-09T02:56:58;-2.20;99.90
40153;DHT22;26371;56.992;23.912;2023-01-09T02:59:32;-2.20;99.90
40153;DHT22;26371;56.992;23.912;2023-01-09T03:02:18;-2.20;99.90
40153;DHT22;26371;56.992;23.912;2023-01-09T03:04:56;-2.10;99.90
40153;DHT22;26371;56.992;23.912;2023-01-09T03:07:31;-2.20;99.90
40153;DHT22;26371;56.992;23.912;2023-01-09T03:10:07;-2.20;99.90
40153;DHT22;26371;56.992;23.912;2023-01-09T03:12:38;-2.20;99.90
40153;DHT22;26371;56.992;23.912;2023-01-09T03:15:11;-2.20;99.90
40153;DHT22;26371;56.992;23.912;2023-01-09T03:17:45;-2.20;99.90
40153;DHT22;26371;56.992;23.912;2023-01-09T03:20:18;-2.20;99.90
40153;DHT22;26371;56.992;23.912;2023-01-09T03:22:53;-2.20;99.90
40153;DHT22;26371;56.992;23.912;2023-01-09T03:25:22;-2.20;99.90
40153;DHT22;26371;56.992;23.912;2023-01-09T03:27:55;-2.20;99.90
40153;DHT22;26371;56.992;23.912;2023-01-09T03:30:26;-2.20;99.90
40153;DHT22;26371;56.992;23.912;2023-01-09T03:32:57;-2.10;99.90
40153;DHT22;26371;56.992;23.912;2023-01-09T03:35:26;-2.10;99.90
40153;DHT22;26371;56.992;23.912;2023-01-09T03:37:55;-2.20;99.90
40153;DHT22;26371;56.992;23.912;2023-01-09T03:40:25;-2.10;99.90
40153;DHT22;26371;56.992;23.912;2023-01-09T03:42:53;-2.10;99.90
40153;DHT22;26371;56.992;23.912;2023-01-09T03:45:23;-2.10;99.90
40153;DHT22;26371;56.992;23.912;2023-01-09T03:47:52;-2.10;99.90
40153;DHT22;26371;56.992;23.912;2023-01-09T03:50:22;-2.10;99.90
40153;DHT22;26371;56.992;23.912;2023-01-09T03:52:51;-2.20;99.90
40153;DHT22;26371;56.992;23.912;2023-01-09T03:55:21;-2.20;99.90
40153;DHT22;26371;56.992;23.912;2023-01-09T03:57:49;-2.20;99.90
40153;DHT22;26371;56.992;23.912;2023-01-09T04:00:19;-2.20;99.90
40153;DHT22;26371;56.992;23.912;2023-01-09T04:02:48;-2.20;99.90
40153;DHT22;26371;56.992;23.912;2023-01-09T04:05:17;-2.30;99.90
40153;DHT22;26371;56.992;23.912;2023-01-09T04:07:47;-2.20;99.90
40153;DHT22;26371;56.992;23.912;2023-01-09T04:10:16;-2.20;99.90
40153;DHT22;26371;56.992;23.912;2023-01-09T04:12:45;-2.20;99.90
40153;DHT22;26371;56.992;23.912;2023-01-09T04:15:13;-2.20;99.90
40153;DHT22;26371;56.992;23.912;2023-01-09T04:17:42;-2.20;99.90
40153;DHT22;26371;56.992;23.912;2023-01-09T04:20:11;-2.20;99.90
40153;DHT22;26371;56.992;23.912;2023-01-09T04:22:40;-2.20;99.90
40153;DHT22;26371;56.992;23.912;2023-01-09T04:25:10;-2.20;99.90
40153;DHT22;26371;56.992;23.912;2023-01-09T04:27:39;-2.20;99.90
40153;DHT22;26371;56.992;23.912;2023-01-09T04:30:09;-2.10;99.90
40153;DHT22;26371;56.992;23.912;2023-01-09T04:32:37;-2.10;99.90
40153;DHT22;26371;56.992;23.912;2023-01-09T04:35:07;-2.20;99.90
40153;DHT22;26371;56.992;23.912;2023-01-09T04:37:37;-2.20;99.90
40153;DHT22;26371;56.992;23.912;2023-01-09T04:40:08;-2.20;99.90
40153;DHT22;26371;56.992;23.912;2023-01-09T04:42:41;-2.20;99.90
40153;DHT22;26371;56.992;23.912;2023-01-09T04:45:11;-2.10;99.90
40153;DHT22;26371;56.992;23.912;2023-01-09T04:47:42;-2.10;99.90
40153;DHT22;26371;56.992;23.912;2023-01-09T04:50:11;-2.10;99.90
40153;DHT22;26371;56.992;23.912;2023-01-09T04:52:40;-2.10;99.90
40153;DHT22;26371;56.992;23.912;2023-01-09T04:55:09;-2.10;99.90
40153;DHT22;26371;56.992;23.912;2023-01-09T04:57:37;-2.10;99.90
40153;DHT22;26371;56.992;23.912;2023-01-09T05:00:09;-2.10;99.90
40153;DHT22;26371;56.992;23.912;2023-01-09T05:02:38;-2.20;99.90
40153;DHT22;26371;56.992;23.912;2023-01-09T05:05:08;-2.20;99.90
40153;DHT22;26371;56.992;23.912;2023-01-09T05:07:38;-2.10;99.90
40153;DHT22;26371;56.992;23.912;2023-01-09T05:10:09;-2.10;99.90
40153;DHT22;26371;56.992;23.912;2023-01-09T05:12:38;-2.10;99.90
40153;DHT22;26371;56.992;23.912;2023-01-09T05:15:09;-2.10;99.90
40153;DHT22;26371;56.992;23.912;2023-01-09T05:17:38;-2.10;99.90
40153;DHT22;26371;56.992;23.912;2023-01-09T05:20:07;-2.20;99.90
40153;DHT22;26371;56.992;23.912;2023-01-09T05:22:36;-2.20;99.90
40153;DHT22;26371;56.992;23.912;2023-01-09T05:25:06;-2.20;99.90
40153;DHT22;26371;56.992;23.912;2023-01-09T05:27:35;-2.20;99.90
40153;DHT22;26371;56.992;23.912;2023-01-09T05:30:04;-2.10;99.90
40153;DHT22;26371;56.992;23.912;2023-01-09T05:32:34;-2.10;99.90
40153;DHT22;26371;56.992;23.912;2023-01-09T05:35:03;-2.10;99.90
40153;DHT22;26371;56.992;23.912;2023-01-09T05:37:32;-2.10;99.90
40153;DHT22;26371;56.992;23.912;2023-01-09T05:40:01;-2.10;99.90
40153;DHT22;26371;56.992;23.912;2023-01-09T05:42:30;-2.10;99.90
40153;DHT22;26371;56.992;23.912;2023-01-09T05:44:59;-2.10;99.90
40153;DHT22;26371;56.992;23.912;2023-01-09T05:47:28;-2.10;99.90
40153;DHT22;26371;56.992;23.912;2023-01-09T05:49:58;-2.10;99.90
40153;DHT22;26371;56.992;23.912;2023-01-09T05:52:27;-2.00;99.90
40153;DHT22;26371;56.992;23.912;2023-01-09T05:54:55;-2.10;99.90
40153;DHT22;26371;56.992;23.912;2023-01-09T05:57:24;-2.10;99.90
40153;DHT22;26371;56.992;23.912;2023-01-09T05:59:53;-2.10;99.90
40153;DHT22;26371;56.992;23.912;2023-01-09T06:02:22;-2.10;99.90
40153;DHT22;26371;56.992;23.912;2023-01-09T06:04:50;-2.10;99.90
40153;DHT22;26371;56.992;23.912;2023-01-09T06:07:20;-2.10;99.90
40153;DHT22;26371;56.992;23.912;2023-01-09T06:09:49;-2.10;99.90
40153;DHT22;26371;56.992;23.912;2023-01-09T06:12:18;-2.10;99.90
40153;DHT22;26371;56.992;23.912;2023-01-09T06:14:46;-2.10;99.90
40153;DHT22;26371;56.992;23.912;2023-01-09T06:17:15;-2.10;99.90
40153;DHT22;26371;56.992;23.912;2023-01-09T06:19:44;-2.10;99.90
40153;DHT22;26371;56.992;23.912;2023-01-09T06:22:12;-2.10;99.90
40153;DHT22;26371;56.992;23.912;2023-01-09T06:24:42;-2.10;99.90
40153;DHT22;26371;56.992;23.912;2023-01-09T06:27:11;-2.10;99.90
40153;DHT22;26371;56.992;23.912;2023-01-09T06:29:40;-2.10;99.90
40153;DHT22;26371;56.992;23.912;2023-01-09T06:32:08;-2.10;99.90
40153;DHT22;26371;56.992;23.912;2023-01-09T06:34:37;-2.10;99.90
40153;DHT22;26371;56.992;23.912;2023-01-09T06:37:06;-2.10;99.90
40153;DHT22;26371;56.992;23.912;2023-01-09T06:39:34;-2.00;99.90
40153;DHT22;26371;56.992;23.912;2023-01-09T06:42:05;-2.00;99.90
40153;DHT22;26371;56.992;23.912;2023-01-09T06:44:34;-2.00;99.90
40153;DHT22;26371;56.992;23.912;2023-01-09T06:47:03;-2.00;99.90
40153;DHT22;26371;56.992;23.912;2023-01-09T06:49:32;-1.90;99.90
40153;DHT22;26371;56.992;23.912;2023-01-09T06:52:01;-1.90;99.90
40153;DHT22;26371;56.992;23.912;2023-01-09T06:54:32;-1.90;99.90
40153;DHT22;26371;56.992;23.912;2023-01-09T06:57:01;-2.00;99.90
40153;DHT22;26371;56.992;23.912;2023-01-09T06:59:31;-2.00;99.90
40153;DHT22;26371;56.992;23.912;2023-01-09T07:02:00;-2.00;99.90
40153;DHT22;26371;56.992;23.912;2023-01-09T07:04:30;-2.10;99.90
40153;DHT22;26371;56.992;23.912;2023-01-09T07:06:59;-2.00;99.90
40153;DHT22;26371;56.992;23.912;2023-01-09T07:09:27;-2.00;99.90
40153;DHT22;26371;56.992;23.912;2023-01-09T07:11:56;-2.00;99.90
40153;DHT22;26371;56.992;23.912;2023-01-09T07:14:25;-2.00;99.90
40153;DHT22;26371;56.992;23.912;2023-01-09T07:16:55;-1.90;99.90
40153;DHT22;26371;56.992;23.912;2023-01-09T07:19:24;-1.90;99.90
40153;DHT22;26371;56.992;23.912;2023-01-09T07:21:52;-1.90;99.90
40153;DHT22;26371;56.992;23.912;2023-01-09T07:24:21;-1.90;99.90
40153;DHT22;26371;56.992;23.912;2023-01-09T07:26:50;-1.90;99.90
40153;DHT22;26371;56.992;23.912;2023-01-09T07:29:19;-1.90;99.90
40153;DHT22;26371;56.992;23.912;2023-01-09T07:31:47;-1.90;99.90
40153;DHT22;26371;56.992;23.912;2023-01-09T07:34:18;-1.90;99.90
40153;DHT22;26371;56.992;23.912;2023-01-09T07:36:47;-1.80;99.90
40153;DHT22;26371;56.992;23.912;2023-01-09T07:39:17;-1.80;99.90
40153;DHT22;26371;56.992;23.912;2023-01-09T07:41:46;-1.80;99.90
40153;DHT22;26371;56.992;23.912;2023-01-09T07:44:15;-1.80;99.90
40153;DHT22;26371;56.992;23.912;2023-01-09T07:46:43;-1.70;99.90
40153;DHT22;26371;56.992;23.912;2023-01-09T07:49:12;-1.70;99.90
40153;DHT22;26371;56.992;23.912;2023-01-09T07:51:42;-1.70;99.90
40153;DHT22;26371;56.992;23.912;2023-01-09T07:54:13;-1.70;99.90
40153;DHT22;26371;56.992;23.912;2023-01-09T07:56:42;-1.70;99.90
40153;DHT22;26371;56.992;23.912;2023-01-09T07:59:11;-1.80;99.90
40153;DHT22;26371;56.992;23.912;2023-01-09T08:01:39;-1.80;99.90
40153;DHT22;26371;56.992;23.912;2023-01-09T08:04:08;-1.80;99.90
40153;DHT22;26371;56.992;23.912;2023-01-09T08:06:37;-1.80;99.90
40153;DHT22;26371;56.992;23.912;2023-01-09T08:09:07;-1.80;99.90
40153;DHT22;26371;56.992;23.912;2023-01-09T08:11:36;-1.70;99.90
40153;DHT22;26371;56.992;23.912;2023-01-09T08:14:05;-1.70;99.90
40153;DHT22;26371;56.992;23.912;2023-01-09T08:16:34;-1.70;99.90
40153;DHT22;26371;56.992;23.912;2023-01-09T08:19:02;-1.70;99.90
40153;DHT22;26371;56.992;23.912;2023-01-09T08:21:31;-1.70;99.90
40153;DHT22;26371;56.992;23.912;2023-01-09T08:24:00;-1.70;99.90
40153;DHT22;26371;56.992;23.912;2023-01-09T08:26:30;-1.70;99.90
40153;DHT22;26371;56.992;23.912;2023-01-09T08:28:59;-1.70;99.90
40153;DHT22;26371;56.992;23.912;2023-01-09T08:31:27;-1.70;99.90
40153;DHT22;26371;56.992;23.912;2023-01-09T08:33:56;-1.70;99.90
40153;DHT22;26371;56.992;23.912;2023-01-09T08:36:25;-1.60;99.90
40153;DHT22;26371;56.992;23.912;2023-01-09T08:38:53;-1.60;99.90
40153;DHT22;26371;56.992;23.912;2023-01-09T08:41:22;-1.60;99.90
40153;DHT22;26371;56.992;23.912;2023-01-09T08:44:09;-1.60;99.90
40153;DHT22;26371;56.992;23.912;2023-01-09T08:46:56;-1.60;99.90
40153;DHT22;26371;56.992;23.912;2023-01-09T08:49:35;-1.60;99.90
40153;DHT22;26371;56.992;23.912;2023-01-09T08:52:05;-1.60;99.90
40153;DHT22;26371;56.992;23.912;2023-01-09T08:54:34;-1.60;99.90
40153;DHT22;26371;56.992;23.912;2023-01-09T08:57:05;-1.60;99.90
40153;DHT22;26371;56.992;23.912;2023-01-09T08:59:35;-1.60;99.90
40153;DHT22;26371;56.992;23.912;2023-01-09T09:02:04;-1.60;99.90
40153;DHT22;26371;56.992;23.912;2023-01-09T09:04:32;-1.60;99.90
40153;DHT22;26371;56.992;23.912;2023-01-09T09:07:01;-1.60;99.90
40153;DHT22;26371;56.992;23.912;2023-01-09T09:09:30;-1.50;99.90
40153;DHT22;26371;56.992;23.912;2023-01-09T09:11:58;-1.50;99.90
40153;DHT22;26371;56.992;23.912;2023-01-09T09:14:27;-1.50;99.90
40153;DHT22;26371;56.992;23.912;2023-01-09T09:17:15;-1.50;99.90
40153;DHT22;26371;56.992;23.912;2023-01-09T09:19:43;-1.50;99.90
40153;DHT22;26371;56.992;23.912;2023-01-09T09:22:12;-1.50;99.90
40153;DHT22;26371;56.992;23.912;2023-01-09T09:24:41;-1.50;99.90
40153;DHT22;26371;56.992;23.912;2023-01-09T09:27:09;-1.50;99.90
40153;DHT22;26371;56.992;23.912;2023-01-09T09:29:38;-1.40;99.90
40153;DHT22;26371;56.992;23.912;2023-01-09T09:32:06;-1.40;99.90
40153;DHT22;26371;56.992;23.912;2023-01-09T09:34:37;-1.40;99.90
40153;DHT22;26371;56.992;23.912;2023-01-09T09:37:06;-1.40;99.90
40153;DHT22;26371;56.992;23.912;2023-01-09T09:39:34;-1.40;99.90
40153;DHT22;26371;56.992;23.912;2023-01-09T09:42:16;-1.40;99.90
40153;DHT22;26371;56.992;23.912;2023-01-09T09:45:18;-1.40;99.90
40153;DHT22;26371;56.992;23.912;2023-01-09T09:47:59;-1.40;99.90
40153;DHT22;26371;56.992;23.912;2023-01-09T09:51:01;-1.30;99.90
40153;DHT22;26371;56.992;23.912;2023-01-09T09:53:37;-1.40;99.90
40153;DHT22;26371;56.992;23.912;2023-01-09T09:56:09;-1.30;99.90
40153;DHT22;26371;56.992;23.912;2023-01-09T09:58:40;-1.40;99.90
40153;DHT22;26371;56.992;23.912;2023-01-09T10:01:15;-1.30;99.90
40153;DHT22;26371;56.992;23.912;2023-01-09T10:03:47;-1.30;99.90
40153;DHT22;26371;56.992;23.912;2023-01-09T10:06:26;-1.30;99.90
40153;DHT22;26371;56.992;23.912;2023-01-09T10:09:01;-1.30;99.90
40153;DHT22;26371;56.992;23.912;2023-01-09T10:11:36;-1.20;99.90
40153;DHT22;26371;56.992;23.912;2023-01-09T10:14:08;-1.20;99.90
40153;DHT22;26371;56.992;23.912;2023-01-09T10:17:03;-1.20;99.90
40153;DHT22;26371;56.992;23.912;2023-01-09T10:19:50;-1.20;99.90
40153;DHT22;26371;56.992;23.912;2023-01-09T10:22:31;-1.20;99.90
40153;DHT22;26371;56.992;23.912;2023-01-09T10:25:14;-1.20;99.90
40153;DHT22;26371;56.992;23.912;2023-01-09T10:27:59;-1.20;99.90
40153;DHT22;26371;56.992;23.912;2023-01-09T10:30:36;-1.10;99.90
40153;DHT22;26371;56.992;23.912;2023-01-09T10:33:23;-1.20;99.90
40153;DHT22;26371;56.992;23.912;2023-01-09T10:36:13;-1.10;99.90
40153;DHT22;26371;56.992;23.912;2023-01-09T10:38:50;-1.20;99.90
40153;DHT22;26371;56.992;23.912;2023-01-09T10:41:23;-1.20;99.90
40153;DHT22;26371;56.992;23.912;2023-01-09T10:43:58;-1.20;99.90
40153;DHT22;26371;56.992;23.912;2023-01-09T10:46:34;-1.30;99.90
40153;DHT22;26371;56.992;23.912;2023-01-09T10:49:10;-1.20;99.90
40153;DHT22;26371;56.992;23.912;2023-01-09T10:51:45;-1.20;99.90
40153;DHT22;26371;56.992;23.912;2023-01-09T10:54:17;-1.20;99.90
40153;DHT22;26371;56.992;23.912;2023-01-09T10:56:52;-1.30;99.90
40153;DHT22;26371;56.992;23.912;2023-01-09T10:59:21;-1.20;99.90
40153;DHT22;26371;56.992;23.912;2023-01-09T11:01:50;-1.20;99.90
40153;DHT22;26371;56.992;23.912;2023-01-09T11:04:22;-1.20;99.90
40153;DHT22;26371;56.992;23.912;2023-01-09T11:06:55;-1.10;99.90
40153;DHT22;26371;56.992;23.912;2023-01-09T11:09:27;-1.10;99.90
40153;DHT22;26371;56.992;23.912;2023-01-09T11:11:56;-1.10;99.90
40153;DHT22;26371;56.992;23.912;2023-01-09T11:14:26;-1.10;99.90
40153;DHT22;26371;56.992;23.912;2023-01-09T11:16:59;-1.20;99.90
40153;DHT22;26371;56.992;23.912;2023-01-09T11:19:30;-1.10;99.90
40153;DHT22;26371;56.992;23.912;2023-01-09T11:22:07;-1.20;99.90
40153;DHT22;26371;56.992;23.912;2023-01-09T11:24:37;-1.20;99.90
40153;DHT22;26371;56.992;23.912;2023-01-09T11:27:32;-1.20;99.90
40153;DHT22;26371;56.992;23.912;2023-01-09T11:30:16;-1.20;99.90
40153;DHT22;26371;56.992;23.912;2023-01-09T11:32:47;-1.20;99.90
40153;DHT22;26371;56.992;23.912;2023-01-09T11:35:19;-1.20;99.90
40153;DHT22;26371;56.992;23.912;2023-01-09T11:37:55;-1.20;99.90
40153;DHT22;26371;56.992;23.912;2023-01-09T11:40:27;-1.10;99.90
40153;DHT22;26371;56.992;23.912;2023-01-09T11:43:11;-1.10;99.90
40153;DHT22;26371;56.992;23.912;2023-01-09T11:45:44;-1.10;99.90
40153;DHT22;26371;56.992;23.912;2023-01-09T11:48:35;-1.00;99.90
40153;DHT22;26371;56.992;23.912;2023-01-09T11:51:15;-1.10;99.90
40153;DHT22;26371;56.992;23.912;2023-01-09T11:54:09;-1.00;99.90
40153;DHT22;26371;56.992;23.912;2023-01-09T11:56:42;-1.00;99.90
40153;DHT22;26371;56.992;23.912;2023-01-09T11:59:12;-1.00;99.90
40153;DHT22;26371;56.992;23.912;2023-01-09T12:02:00;-1.10;99.90
40153;DHT22;26371;56.992;23.912;2023-01-09T12:04:36;-1.10;99.90
40153;DHT22;26371;56.992;23.912;2023-01-09T12:10:31;-1.10;99.90
40153;DHT22;26371;56.992;23.912;2023-01-09T12:13:12;-1.00;99.90
40153;DHT22;26371;56.992;23.912;2023-01-09T12:15:50;-1.00;99.90
40153;DHT22;26371;56.992;23.912;2023-01-09T12:18:31;-1.00;99.90
40153;DHT22;26371;56.992;23.912;2023-01-09T12:21:17;-1.10;99.90
40153;DHT22;26371;56.992;23.912;2023-01-09T12:23:59;-1.00;99.90
40153;DHT22;26371;56.992;23.912;2023-01-09T12:26:32;-1.10;99.90
40153;DHT22;26371;56.992;23.912;2023-01-09T12:29:22;-1.10;99.90
40153;DHT22;26371;56.992;23.912;2023-01-09T12:32:03;-1.10;99.90
40153;DHT22;26371;56.992;23.912;2023-01-09T12:34:50;-1.10;99.90
40153;DHT22;26371;56.992;23.912;2023-01-09T12:37:43;-1.10;99.90
40153;DHT22;26371;56.992;23.912;2023-01-09T12:40:24;-1.00;99.90
40153;DHT22;26371;56.992;23.912;2023-01-09T12:43:01;-1.00;99.90
40153;DHT22;26371;56.992;23.912;2023-01-09T12:45:43;-1.10;99.90
40153;DHT22;26371;56.992;23.912;2023-01-09T12:48:25;-1.10;99.90
40153;DHT22;26371;56.992;23.912;2023-01-09T12:51:10;-1.10;99.90
40153;DHT22;26371;56.992;23.912;2023-01-09T12:53:48;-1.10;99.90
40153;DHT22;26371;56.992;23.912;2023-01-09T12:56:22;-1.10;99.90
40153;DHT22;26371;56.992;23.912;2023-01-09T12:58:54;-1.10;99.90
40153;DHT22;26371;56.992;23.912;2023-01-09T13:01:30;-1.10;99.90
40153;DHT22;26371;56.992;23.912;2023-01-09T13:04:08;-1.00;99.90
40153;DHT22;26371;56.992;23.912;2023-01-09T13:06:43;-1.00;99.90
40153;DHT22;26371;56.992;23.912;2023-01-09T13:09:21;-1.00;99.90
40153;DHT22;26371;56.992;23.912;2023-01-09T13:12:00;-1.00;99.90
40153;DHT22;26371;56.992;23.912;2023-01-09T13:14:38;-1.00;99.90
40153;DHT22;26371;56.992;23.912;2023-01-09T13:17:16;-1.10;99.90
40153;DHT22;26371;56.992;23.912;2023-01-09T13:19:46;-1.10;99.90
40153;DHT22;26371;56.992;23.912;2023-01-09T13:22:15;-1.10;99.90
40153;DHT22;26371;56.992;23.912;2023-01-09T13:25:14;-1.00;99.90
40153;DHT22;26371;56.992;23.912;2023-01-09T13:27:49;-1.00;99.90
40153;DHT22;26371;56.992;23.912;2023-01-09T13:30:31;-1.00;99.90
40153;DHT22;26371;56.992;23.912;2023-01-09T13:33:12;-1.10;99.90
40153;DHT22;26371;56.992;23.912;2023-01-09T13:35:50;-1.10;99.90
40153;DHT22;26371;56.992;23.912;2023-01-09T13:38:21;-1.10;99.90
40153;DHT22;26371;56.992;23.912;2023-01-09T13:41:09;-1.10;99.90
40153;DHT22;26371;56.992;23.912;2023-01-09T13:43:58;-1.00;99.90
40153;DHT22;26371;56.992;23.912;2023-01-09T13:46:34;-1.00;99.90
40153;DHT22;26371;56.992;23.912;2023-01-09T13:49:05;-1.00;99.90
40153;DHT22;26371;56.992;23.912;2023-01-09T13:51:57;-1.00;99.90
40153;DHT22;26371;56.992;23.912;2023-01-09T13:55:01;-1.00;99.90
40153;DHT22;26371;56.992;23.912;2023-01-09T13:57:31;-1.00;99.90
40153;DHT22;26371;56.992;23.912;2023-01-09T14:03:19;-1.00;99.90
40153;DHT22;26371;56.992;23.912;2023-01-09T14:06:10;-1.10;99.90
40153;DHT22;26371;56.992;23.912;2023-01-09T14:08:40;-1.00;99.90
40153;DHT22;26371;56.992;23.912;2023-01-09T14:11:19;-1.00;99.90
40153;DHT22;26371;56.992;23.912;2023-01-09T14:14:05;-1.00;99.90
40153;DHT22;26371;56.992;23.912;2023-01-09T14:16:35;-1.00;99.90
40153;DHT22;26371;56.992;23.912;2023-01-09T14:19:16;-1.00;99.90
40153;DHT22;26371;56.992;23.912;2023-01-09T14:21:52;-1.00;99.90
40153;DHT22;26371;56.992;23.912;2023-01-09T14:24:25;-1.00;99.90
40153;DHT22;26371;56.992;23.912;2023-01-09T14:26:56;-1.00;99.90
40153;DHT22;26371;56.992;23.912;2023-01-09T14:29:45;-1.10;99.90
40153;DHT22;26371;56.992;23.912;2023-01-09T14:32:43;-1.10;99.90
40153;DHT22;26371;56.992;23.912;2023-01-09T14:35:26;-1.10;99.90
40153;DHT22;26371;56.992;23.912;2023-01-09T14:38:15;-1.10;99.90
40153;DHT22;26371;56.992;23.912;2023-01-09T14:40:47;-1.10;99.90
40153;DHT22;26371;56.992;23.912;2023-01-09T14:43:25;-1.10;99.90
40153;DHT22;26371;56.992;23.912;2023-01-09T14:46:01;-1.10;99.90
40153;DHT22;26371;56.992;23.912;2023-01-09T14:48:33;-1.20;99.90
40153;DHT22;26371;56.992;23.912;2023-01-09T14:51:03;-1.20;99.90
40153;DHT22;26371;56.992;23.912;2023-01-09T14:53:37;-1.20;99.90
40153;DHT22;26371;56.992;23.912;2023-01-09T14:56:23;-1.10;99.90
40153;DHT22;26371;56.992;23.912;2023-01-09T14:59:09;-1.10;99.90
40153;DHT22;26371;56.992;23.912;2023-01-09T15:01:41;-1.20;99.90
40153;DHT22;26371;56.992;23.912;2023-01-09T15:04:24;-1.20;99.90
40153;DHT22;26371;56.992;23.912;2023-01-09T15:06:53;-1.20;99.90
40153;DHT22;26371;56.992;23.912;2023-01-09T15:09:26;-1.20;99.90
40153;DHT22;26371;56.992;23.912;2023-01-09T15:11:57;-1.20;99.90
40153;DHT22;26371;56.992;23.912;2023-01-09T15:14:31;-1.20;99.90
40153;DHT22;26371;56.992;23.912;2023-01-09T15:17:01;-1.30;99.90
40153;DHT22;26371;56.992;23.912;2023-01-09T15:19:31;-1.30;99.90
40153;DHT22;26371;56.992;23.912;2023-01-09T15:22:02;-1.20;99.90
40153;DHT22;26371;56.992;23.912;2023-01-09T15:24:33;-1.20;99.90
40153;DHT22;26371;56.992;23.912;2023-01-09T15:27:08;-1.30;99.90
40153;DHT22;26371;56.992;23.912;2023-01-09T15:29:37;-1.30;99.90
40153;DHT22;26371;56.992;23.912;2023-01-09T15:32:09;-1.40;99.90
40153;DHT22;26371;56.992;23.912;2023-01-09T15:34:43;-1.30;99.90
40153;DHT22;26371;56.992;23.912;2023-01-09T15:37:27;-1.40;99.90
40153;DHT22;26371;56.992;23.912;2023-01-09T15:39:59;-1.40;99.90
40153;DHT22;26371;56.992;23.912;2023-01-09T15:42:31;-1.40;99.90
40153;DHT22;26371;56.992;23.912;2023-01-09T15:45:22;-1.40;99.90
40153;DHT22;26371;56.992;23.912;2023-01-09T15:47:52;-1.40;99.90
40153;DHT22;26371;56.992;23.912;2023-01-09T15:50:25;-1.40;99.90
40153;DHT22;26371;56.992;23.912;2023-01-09T15:52:55;-1.40;99.90
40153;DHT22;26371;56.992;23.912;2023-01-09T15:55:30;-1.50;99.90
40153;DHT22;26371;56.992;23.912;2023-01-09T15:58:03;-1.50;99.90
40153;DHT22;26371;56.992;23.912;2023-01-09T16:00:38;-1.50;99.90